Time;durP1;ratioP1;P1;durP2;ratioP2;P2;SDS_P1;SDS_P2;PMS_P1;PMS_P2;Temp;Humidity;BMP_temperature;BMP_pressure;BME280_temperature;BME280_humidity;BME280_pressure;Samples;Min_cycle;Max_cycle;Signal;HPM_P1;HPM_P2
2023/05/29 00:04:04;;;;;;;6.82;3.80;;;;;;;;;;10621876;27;20643;-80
2023/05/29 00:09:05;;;;;;;6.95;4.13;;;;;;;;;;10623579;27;20509;-79
2023/05/29 00:14:06;;;;;;;8.68;4.05;;;;;;;;;;10627507;27;20045;-79
2023/05/29 00:19:08;;;;;;;6.90;3.83;;;;;;;;;;10611417;27;20035;-79
2023/05/29 00:24:09;;;;;;;9.75;4.20;;;;;;;;;;10637746;27;20091;-81
2023/05/29 00:29:10;;;;;;;7.17;4.00;;;;;;;;;;10602132;27;20531;-80
2023/05/29 00:34:11;;;;;;;7.82;4.15;;;;;;;;;;10614254;27;20395;-79
2023/05/29 00:39:13;;;;;;;5.68;3.33;;;;;;;;;;10608965;27;20023;-80
2023/05/29 00:44:14;;;;;;;6.97;3.22;;;;;;;;;;10595741;27;20035;-80
2023/05/29 00:49:16;;;;;;;8.90;3.63;;;;;;;;;;10615574;27;20039;-81
2023/05/29 00:54:21;;;;;;;7.60;3.78;;;;;;;;;;10610923;27;20034;-79
2023/05/29 00:59:23;;;;;;;6.18;3.08;;;;;;;;;;10584708;27;20143;-79
2023/05/29 01:04:25;;;;;;;8.40;3.85;;;;;;;;;;10618440;27;20656;-79
2023/05/29 01:09:26;;;;;;;6.80;3.30;;;;;;;;;;10604653;27;20061;-80
2023/05/29 01:14:36;;;;;;;6.00;3.38;;;;;;;;;;10602206;27;20065;-78
2023/05/29 01:19:53;;;;;;;5.40;3.55;;;;;;;;;;10613471;27;20023;-80
2023/05/29 01:25:19;;;;;;;7.82;3.90;;;;;;;;;;10608732;27;20057;-79
2023/05/29 01:30:21;;;;;;;7.10;3.15;;;;;;;;;;10609903;27;20059;-81
2023/05/29 01:35:22;;;;;;;8.38;3.60;;;;;;;;;;10619709;27;20038;-80
2023/05/29 01:40:23;;;;;;;6.70;3.63;;;;;;;;;;10620010;27;20392;-82
2023/05/29 01:45:24;;;;;;;6.50;3.57;;;;;;;;;;10611805;27;20639;-80
2023/05/29 01:50:26;;;;;;;7.57;3.53;;;;;;;;;;10612880;27;20064;-83
2023/05/29 01:55:27;;;;;;;5.90;2.88;;;;;;;;;;10618008;27;20031;-79
2023/05/29 02:00:29;;;;;;;8.93;3.70;;;;;;;;;;10615502;27;20038;-81
2023/05/29 02:05:30;;;;;;;8.63;3.47;;;;;;;;;;10611190;27;20043;-82
2023/05/29 02:10:31;;;;;;;5.95;2.83;;;;;;;;;;10617195;27;20114;-80
2023/05/29 02:15:32;;;;;;;6.78;3.55;;;;;;;;;;10591204;27;20028;-83
2023/05/29 02:20:34;;;;;;;9.82;3.38;;;;;;;;;;10616862;27;20035;-80
2023/05/29 02:25:35;;;;;;;9.30;3.45;;;;;;;;;;10616110;27;20042;-81
2023/05/29 02:30:36;;;;;;;7.50;3.42;;;;;;;;;;10616185;27;20051;-79
2023/05/29 02:35:37;;;;;;;7.87;3.80;;;;;;;;;;10611642;27;20027;-82
2023/05/29 02:40:38;;;;;;;6.43;3.60;;;;;;;;;;10607230;27;20037;-80
2023/05/29 02:45:39;;;;;;;7.40;3.40;;;;;;;;;;10619451;27;20031;-80
2023/05/29 02:50:40;;;;;;;10.93;4.17;;;;;;;;;;10615642;27;20023;-82
2023/05/29 02:55:42;;;;;;;8.13;4.10;;;;;;;;;;10611915;27;20036;-79
2023/05/29 03:00:43;;;;;;;9.87;3.83;;;;;;;;;;10625406;27;20030;-80
2023/05/29 03:05:45;;;;;;;6.90;3.63;;;;;;;;;;10605602;27;20058;-79
2023/05/29 03:10:47;;;;;;;6.35;3.42;;;;;;;;;;10612475;27;20490;-81
2023/05/29 03:15:48;;;;;;;6.67;3.90;;;;;;;;;;10621242;27;20056;-79
2023/05/29 03:20:49;;;;;;;6.43;3.60;;;;;;;;;;10615828;27;20016;-80
2023/05/29 03:25:50;;;;;;;6.27;3.70;;;;;;;;;;10614402;27;20031;-80
2023/05/29 03:30:51;;;;;;;6.70;3.40;;;;;;;;;;10622996;27;20491;-82
2023/05/29 03:35:52;;;;;;;8.13;3.40;;;;;;;;;;10602942;27;20391;-84
2023/05/29 03:40:53;;;;;;;8.90;3.65;;;;;;;;;;10587298;27;20042;-82
2023/05/29 03:45:54;;;;;;;6.80;3.53;;;;;;;;;;10607205;27;20110;-82
2023/05/29 03:50:55;;;;;;;4.80;3.00;;;;;;;;;;10613268;27;20084;-83
2023/05/29 03:55:56;;;;;;;6.68;3.20;;;;;;;;;;10611751;27;20037;-80
2023/05/29 04:00:57;;;;;;;7.75;3.40;;;;;;;;;;10612023;27;20658;-80
2023/05/29 04:05:58;;;;;;;6.32;2.67;;;;;;;;;;10608696;27;20126;-83
2023/05/29 04:10:59;;;;;;;7.25;3.00;;;;;;;;;;10597097;27;20663;-81
2023/05/29 04:16:00;;;;;;;8.75;4.50;;;;;;;;;;10625243;27;20884;-80
2023/05/29 04:21:01;;;;;;;8.75;3.72;;;;;;;;;;10635555;27;20027;-79
2023/05/29 04:26:02;;;;;;;5.75;3.60;;;;;;;;;;10617564;27;20027;-80
2023/05/29 04:31:04;;;;;;;9.50;3.95;;;;;;;;;;10595304;27;20058;-80
2023/05/29 04:36:08;;;;;;;8.68;3.88;;;;;;;;;;10600494;27;20468;-81
2023/05/29 04:41:10;;;;;;;6.13;3.53;;;;;;;;;;10611841;27;20027;-79
2023/05/29 04:46:12;;;;;;;7.15;3.47;;;;;;;;;;10610570;27;20896;-80
2023/05/29 04:51:13;;;;;;;8.95;3.50;;;;;;;;;;10599957;27;20038;-82
2023/05/29 04:56:15;;;;;;;8.68;3.65;;;;;;;;;;10588836;27;20123;-79
2023/05/29 05:01:17;;;;;;;9.38;3.83;;;;;;;;;;10592144;27;20061;-79
2023/05/29 05:06:18;;;;;;;8.60;3.78;;;;;;;;;;10603541;27;20470;-82
2023/05/29 05:11:20;;;;;;;7.95;4.05;;;;;;;;;;10601369;27;20110;-78
2023/05/29 05:16:21;;;;;;;7.72;3.85;;;;;;;;;;10610383;27;20497;-80
2023/05/29 05:21:22;;;;;;;5.65;3.65;;;;;;;;;;10574393;28;20027;-79
2023/05/29 05:26:23;;;;;;;7.03;3.20;;;;;;;;;;10597005;28;20035;-81
2023/05/29 05:31:25;;;;;;;8.52;3.50;;;;;;;;;;10603620;28;20491;-79
2023/05/29 05:36:26;;;;;;;6.68;3.58;;;;;;;;;;10598176;28;20033;-79
2023/05/29 05:41:27;;;;;;;6.45;3.22;;;;;;;;;;10599121;28;20035;-80
2023/05/29 05:46:28;;;;;;;5.22;3.38;;;;;;;;;;10563890;28;20062;-84
2023/05/29 05:51:29;;;;;;;8.80;4.40;;;;;;;;;;10593627;28;20088;-80
2023/05/29 05:56:30;;;;;;;5.57;3.30;;;;;;;;;;10607482;28;20133;-78
2023/05/29 06:01:31;;;;;;;7.97;4.10;;;;;;;;;;10581082;28;20118;-80
2023/05/29 06:06:32;;;;;;;7.78;3.80;;;;;;;;;;10587759;28;20027;-83
2023/05/29 06:11:33;;;;;;;7.28;4.13;;;;;;;;;;10609577;28;20493;-84
2023/05/29 06:16:34;;;;;;;4.38;3.13;;;;;;;;;;10613407;27;20114;-79
2023/05/29 06:21:35;;;;;;;4.82;2.90;;;;;;;;;;10618195;27;20481;-80
2023/05/29 06:26:37;;;;;;;6.35;3.08;;;;;;;;;;10617361;27;20031;-80
2023/05/29 06:31:38;;;;;;;9.70;4.22;;;;;;;;;;10591138;27;20051;-79
2023/05/29 06:36:40;;;;;;;7.03;3.33;;;;;;;;;;10617426;27;20102;-82
2023/05/29 06:41:41;;;;;;;4.75;2.95;;;;;;;;;;10588361;27;20038;-79
2023/05/29 06:46:42;;;;;;;8.13;4.50;;;;;;;;;;10617016;27;20089;-81
2023/05/29 06:51:43;;;;;;;8.48;4.15;;;;;;;;;;10616686;27;20041;-83
2023/05/29 06:56:44;;;;;;;8.02;4.05;;;;;;;;;;10573184;27;20035;-81
2023/05/29 07:01:45;;;;;;;11.65;4.68;;;;;;;;;;10616066;27;20474;-81
2023/05/29 07:06:46;;;;;;;9.07;4.70;;;;;;;;;;10616248;27;20058;-80
2023/05/29 07:11:47;;;;;;;9.20;3.55;;;;;;;;;;10615869;27;20047;-80
2023/05/29 07:16:48;;;;;;;6.20;3.75;;;;;;;;;;10615777;27;20462;-80
2023/05/29 07:21:49;;;;;;;5.68;3.13;;;;;;;;;;10615940;27;20035;-83
2023/05/29 07:26:50;;;;;;;14.32;3.00;;;;;;;;;;10613846;27;20466;-80
2023/05/29 07:31:52;;;;;;;8.02;2.75;;;;;;;;;;10615299;27;20058;-80
2023/05/29 07:37:03;;;;;;;5.88;2.60;;;;;;;;;;10614990;27;20023;-80
2023/05/29 07:42:06;;;;;;;4.90;2.75;;;;;;;;;;10593588;27;20034;-80
2023/05/29 07:47:07;;;;;;;9.88;3.10;;;;;;;;;;10605772;27;20030;-83
2023/05/29 07:52:08;;;;;;;6.55;2.33;;;;;;;;;;10614293;27;20031;-80
2023/05/29 07:57:09;;;;;;;6.65;2.90;;;;;;;;;;10614557;27;20130;-81
2023/05/29 08:02:10;;;;;;;6.85;2.78;;;;;;;;;;10613971;27;20019;-81
2023/05/29 08:07:12;;;;;;;5.53;2.50;;;;;;;;;;10613465;27;20031;-81
2023/05/29 08:12:13;;;;;;;5.88;2.58;;;;;;;;;;10613500;27;20047;-80
2023/05/29 08:17:14;;;;;;;4.30;2.08;;;;;;;;;;10613931;27;20114;-83
2023/05/29 08:22:15;;;;;;;4.78;2.30;;;;;;;;;;10613156;27;20058;-80
2023/05/29 08:27:16;;;;;;;3.42;2.55;;;;;;;;;;10612388;27;20035;-80
2023/05/29 08:32:17;;;;;;;4.82;2.00;;;;;;;;;;10612149;27;20585;-79
2023/05/29 08:37:19;;;;;;;5.15;2.40;;;;;;;;;;10612515;27;20019;-81
2023/05/29 08:42:33;;;;;;;5.95;2.08;;;;;;;;;;10611899;27;20080;-80
2023/05/29 08:47:34;;;;;;;5.13;2.25;;;;;;;;;;10593367;27;20663;-80
2023/05/29 08:52:36;;;;;;;3.15;2.30;;;;;;;;;;10611258;27;20043;-81
2023/05/29 08:57:38;;;;;;;4.43;2.10;;;;;;;;;;10611651;27;20046;-81
2023/05/29 09:02:46;;;;;;;19.27;3.50;;;;;;;;;;10611143;27;20034;-81
2023/05/29 09:07:49;;;;;;;3.67;2.28;;;;;;;;;;10611471;27;20371;-80
2023/05/29 09:12:50;;;;;;;3.03;2.20;;;;;;;;;;10611124;27;20064;-80
2023/05/29 09:17:55;;;;;;;3.63;1.85;;;;;;;;;;10611186;27;20375;-81
2023/05/29 09:22:56;;;;;;;;;;;;;;;;;;10611763;28;20031;-81
2023/05/29 09:28:05;;;;;;;6.43;2.38;;;;;;;;;;10591992;28;19915;-83
2023/05/29 09:33:07;;;;;;;4.47;2.35;;;;;;;;;;10610384;27;20150;-81
2023/05/29 09:38:09;;;;;;;6.85;2.50;;;;;;;;;;10610393;28;20368;-81
2023/05/29 09:43:11;;;;;;;4.53;2.53;;;;;;;;;;10610638;28;20107;-81
2023/05/29 09:48:13;;;;;;;5.80;2.75;;;;;;;;;;10610219;28;20023;-82
2023/05/29 09:53:24;;;;;;;8.48;2.28;;;;;;;;;;10617459;27;20043;-82
2023/05/29 09:58:25;;;;;;;4.70;2.35;;;;;;;;;;10618755;27;20089;-81
2023/05/29 10:03:29;;;;;;;5.80;2.65;;;;;;;;;;10618031;27;20136;-82
2023/05/29 10:08:31;;;;;;;6.05;2.90;;;;;;;;;;10618378;27;20489;-80
2023/05/29 10:13:36;;;;;;;6.32;2.47;;;;;;;;;;10618165;27;20035;-82
2023/05/29 10:18:42;;;;;;;5.30;2.75;;;;;;;;;;10618025;27;20481;-82
2023/05/29 10:23:46;;;;;;;4.55;2.17;;;;;;;;;;10611710;27;20056;-80
2023/05/29 10:29:06;;;;;;;4.53;1.90;;;;;;;;;;10617451;27;20023;-80
2023/05/29 10:34:08;;;;;;;6.22;2.60;;;;;;;;;;10612829;27;20051;-83
2023/05/29 10:39:09;;;;;;;4.80;2.15;;;;;;;;;;10603017;27;20019;-82
2023/05/29 10:44:45;;;;;;;2.80;2.28;;;;;;;;;;10594134;27;20114;-83
2023/05/29 10:49:50;;;;;;;3.40;2.28;;;;;;;;;;10489995;27;20490;-81
2023/05/29 10:54:53;;;;;;;6.05;2.72;;;;;;;;;;10601813;27;20080;-80
2023/05/29 11:00:00;;;;;;;5.82;2.45;;;;;;;;;;10603216;27;20049;-80
2023/05/29 11:05:05;;;;;;;3.58;2.22;;;;;;;;;;10633254;27;20114;-79
2023/05/29 11:10:13;;;;;;;4.32;2.63;;;;;;;;;;10604261;27;20041;-81
2023/05/29 11:15:15;;;;;;;3.78;2.58;;;;;;;;;;10605479;27;20035;-81
2023/05/29 11:20:29;;;;;;;4.85;2.33;;;;;;;;;;10615294;27;20026;-79
2023/05/29 11:25:33;;;;;;;5.78;2.97;;;;;;;;;;10610004;27;20798;-81
2023/05/29 11:30:41;;;;;;;7.15;2.88;;;;;;;;;;10603626;27;20507;-80
2023/05/29 11:35:42;;;;;;;7.05;3.03;;;;;;;;;;10594853;27;20031;-82
2023/05/29 11:40:43;;;;;;;5.63;2.60;;;;;;;;;;10613235;27;20593;-81
2023/05/29 11:45:45;;;;;;;5.25;2.72;;;;;;;;;;10608765;27;20028;-79
2023/05/29 11:50:46;;;;;;;4.45;2.72;;;;;;;;;;10585030;27;20028;-79
2023/05/29 11:55:47;;;;;;;4.70;2.65;;;;;;;;;;10604786;27;20039;-84
2023/05/29 12:00:50;;;;;;;5.68;3.08;;;;;;;;;;10611533;27;20098;-82
2023/05/29 12:05:55;;;;;;;6.45;2.55;;;;;;;;;;10610344;27;20027;-79
2023/05/29 12:10:56;;;;;;;6.63;3.30;;;;;;;;;;10599894;27;20031;-82
2023/05/29 12:15:58;;;;;;;6.30;3.35;;;;;;;;;;10601730;27;20078;-82
2023/05/29 12:21:04;;;;;;;5.13;2.85;;;;;;;;;;10611121;27;20478;-84
2023/05/29 12:26:05;;;;;;;6.22;3.80;;;;;;;;;;10604010;27;20031;-82
2023/05/29 12:31:07;;;;;;;5.78;3.22;;;;;;;;;;10590172;27;20055;-83
2023/05/29 12:36:10;;;;;;;5.47;2.92;;;;;;;;;;10605120;27;20048;-83
2023/05/29 12:41:21;;;;;;;5.25;2.70;;;;;;;;;;10611498;27;20039;-81
2023/05/29 12:46:23;;;;;;;5.35;2.67;;;;;;;;;;10611946;27;20394;-82
2023/05/29 12:51:28;;;;;;;4.88;2.95;;;;;;;;;;10621989;27;20095;-82
2023/05/29 12:56:29;;;;;;;5.20;3.13;;;;;;;;;;10610779;27;20058;-81
2023/05/29 13:01:30;;;;;;;7.40;3.33;;;;;;;;;;10605860;27;20259;-82
2023/05/29 13:06:31;;;;;;;7.68;3.33;;;;;;;;;;10596865;27;20039;-85
2023/05/29 13:11:32;;;;;;;5.18;2.72;;;;;;;;;;10592366;27;20042;-82
2023/05/29 13:16:33;;;;;;;9.82;3.15;;;;;;;;;;10596920;27;20050;-80
2023/05/29 13:21:35;;;;;;;4.40;2.38;;;;;;;;;;10597148;27;20837;-82
2023/05/29 13:26:36;;;;;;;5.32;2.55;;;;;;;;;;10584807;27;20019;-86
2023/05/29 13:31:37;;;;;;;5.65;3.10;;;;;;;;;;10603605;27;20082;-81
2023/05/29 13:36:38;;;;;;;4.90;2.92;;;;;;;;;;10594920;27;20027;-84
2023/05/29 13:41:39;;;;;;;6.63;3.20;;;;;;;;;;10610378;27;20128;-81
2023/05/29 13:46:40;;;;;;;6.15;2.83;;;;;;;;;;10620545;27;20030;-82
2023/05/29 13:51:41;;;;;;;4.32;2.70;;;;;;;;;;10620779;27;20494;-81
2023/05/29 13:56:42;;;;;;;6.30;2.95;;;;;;;;;;10630346;27;20056;-82
2023/05/29 14:01:45;;;;;;;7.60;3.53;;;;;;;;;;10616219;27;20146;-80
2023/05/29 14:06:46;;;;;;;5.80;3.60;;;;;;;;;;10608284;27;20051;-81
2023/05/29 14:11:47;;;;;;;4.75;2.42;;;;;;;;;;10606028;27;20629;-80
2023/05/29 14:16:48;;;;;;;5.28;2.80;;;;;;;;;;10628746;27;20058;-81
2023/05/29 14:21:49;;;;;;;13.82;4.45;;;;;;;;;;10619424;27;20101;-80
2023/05/29 14:26:50;;;;;;;7.72;3.22;;;;;;;;;;10621296;27;20019;-80
2023/05/29 14:31:51;;;;;;;6.10;3.20;;;;;;;;;;10618642;27;20059;-81
2023/05/29 14:36:52;;;;;;;5.13;2.95;;;;;;;;;;10624266;27;20058;-80
2023/05/29 14:41:53;;;;;;;5.72;2.65;;;;;;;;;;10622299;27;20019;-80
2023/05/29 14:46:54;;;;;;;2.83;2.30;;;;;;;;;;10619281;27;20118;-81
2023/05/29 14:51:55;;;;;;;5.50;2.60;;;;;;;;;;10623129;27;20035;-83
2023/05/29 14:56:57;;;;;;;3.83;2.38;;;;;;;;;;10617833;27;20122;-79
2023/05/29 15:01:59;;;;;;;4.35;2.88;;;;;;;;;;10618808;27;20054;-81
2023/05/29 15:07:00;;;;;;;6.15;2.75;;;;;;;;;;10624473;27;20043;-81
2023/05/29 15:12:02;;;;;;;9.00;3.35;;;;;;;;;;10630791;27;20043;-80
2023/05/29 15:17:04;;;;;;;4.10;2.22;;;;;;;;;;10603309;27;20043;-80
2023/05/29 15:22:05;;;;;;;5.70;2.58;;;;;;;;;;10600799;27;20051;-80
2023/05/29 15:27:06;;;;;;;4.85;2.10;;;;;;;;;;10598154;27;20030;-78
2023/05/29 15:32:07;;;;;;;48.97;15.65;;;;;;;;;;10609823;27;20039;-81
2023/05/29 15:37:08;;;;;;;11.05;4.00;;;;;;;;;;10555939;27;20027;-82
2023/05/29 15:42:11;;;;;;;31.25;8.52;;;;;;;;;;10596153;27;20073;-80
2023/05/29 15:47:12;;;;;;;10.70;4.18;;;;;;;;;;10596775;27;20066;-81
2023/05/29 15:52:15;;;;;;;14.63;4.82;;;;;;;;;;10618977;27;20446;-81
2023/05/29 15:57:16;;;;;;;6.78;2.60;;;;;;;;;;10619652;27;20027;-81
2023/05/29 16:02:17;;;;;;;4.13;2.58;;;;;;;;;;10615575;27;20107;-81
2023/05/29 16:07:18;;;;;;;6.00;2.50;;;;;;;;;;10616500;27;20030;-84
2023/05/29 16:12:20;;;;;;;5.63;2.38;;;;;;;;;;10586285;27;20047;-81
2023/05/29 16:17:21;;;;;;;5.25;2.28;;;;;;;;;;10602197;27;20562;-80
2023/05/29 16:22:22;;;;;;;3.85;2.15;;;;;;;;;;10615288;27;20039;-81
2023/05/29 16:27:23;;;;;;;5.68;2.80;;;;;;;;;;10606832;27;20063;-80
2023/05/29 16:32:25;;;;;;;3.80;2.33;;;;;;;;;;10602694;27;20459;-81
2023/05/29 16:37:26;;;;;;;4.70;2.63;;;;;;;;;;10612883;27;20106;-83
2023/05/29 16:42:27;;;;;;;4.22;2.28;;;;;;;;;;10603072;27;20035;-81
2023/05/29 16:47:30;;;;;;;3.65;2.28;;;;;;;;;;10590455;27;20044;-81
2023/05/29 16:52:31;;;;;;;6.63;3.53;;;;;;;;;;10611641;27;20039;-80
2023/05/29 16:57:34;;;;;;;7.07;4.10;;;;;;;;;;10605609;27;20079;-83
2023/05/29 17:02:35;;;;;;;8.43;3.65;;;;;;;;;;10606017;27;20027;-81
2023/05/29 17:07:36;;;;;;;7.80;4.20;;;;;;;;;;10609909;27;20126;-81
2023/05/29 17:12:38;;;;;;;8.05;3.67;;;;;;;;;;10611172;27;20122;-82
2023/05/29 17:17:40;;;;;;;6.80;4.00;;;;;;;;;;10620725;27;20031;-81
2023/05/29 17:22:41;;;;;;;9.27;4.80;;;;;;;;;;10618151;27;20023;-80
2023/05/29 17:27:42;;;;;;;6.53;4.22;;;;;;;;;;10603704;27;20120;-83
2023/05/29 17:32:43;;;;;;;9.35;5.75;;;;;;;;;;10608988;27;20714;-81
2023/05/29 17:37:45;;;;;;;9.77;6.18;;;;;;;;;;10611230;27;20035;-83
2023/05/29 17:42:46;;;;;;;11.27;7.35;;;;;;;;;;10609613;28;20027;-82
2023/05/29 17:47:47;;;;;;;12.55;7.47;;;;;;;;;;10619540;27;20023;-80
2023/05/29 17:52:48;;;;;;;11.20;6.53;;;;;;;;;;10600957;27;20115;-80
2023/05/29 17:57:49;;;;;;;12.30;5.82;;;;;;;;;;10598877;28;20046;-84
2023/05/29 18:02:50;;;;;;;14.18;7.55;;;;;;;;;;10608374;28;20479;-79
2023/05/29 18:07:51;;;;;;;14.32;7.05;;;;;;;;;;10607570;27;20099;-82
2023/05/29 18:12:52;;;;;;;16.45;7.95;;;;;;;;;;10583543;27;20172;-80
2023/05/29 18:17:53;;;;;;;17.42;9.60;;;;;;;;;;10605598;27;20038;-83
2023/05/29 18:22:57;;;;;;;30.33;15.50;;;;;;;;;;10622469;27;20035;-81
2023/05/29 18:27:59;;;;;;;31.15;17.67;;;;;;;;;;10594508;27;20470;-80
2023/05/29 18:33:01;;;;;;;28.13;16.77;;;;;;;;;;10602792;27;20660;-79
2023/05/29 18:38:02;;;;;;;29.48;19.10;;;;;;;;;;10617197;27;20034;-80
2023/05/29 18:43:04;;;;;;;26.90;17.27;;;;;;;;;;10600684;27;20036;-81
2023/05/29 18:48:05;;;;;;;17.83;12.82;;;;;;;;;;10613067;27;20482;-81
2023/05/29 18:53:07;;;;;;;12.65;8.35;;;;;;;;;;10617496;27;20035;-78
2023/05/29 18:58:08;;;;;;;12.57;7.47;;;;;;;;;;10564990;27;20415;-83
2023/05/29 19:03:09;;;;;;;11.55;5.72;;;;;;;;;;10586867;27;20030;-82
2023/05/29 19:08:10;;;;;;;13.07;5.47;;;;;;;;;;10619638;27;20031;-83
2023/05/29 19:13:11;;;;;;;13.27;7.10;;;;;;;;;;10598678;27;20035;-82
2023/05/29 19:18:12;;;;;;;14.75;6.40;;;;;;;;;;10607148;27;20016;-81
2023/05/29 19:23:13;;;;;;;10.25;5.28;;;;;;;;;;10604932;27;20614;-80
2023/05/29 19:28:14;;;;;;;10.07;4.97;;;;;;;;;;10614396;27;20090;-81
2023/05/29 19:33:15;;;;;;;9.38;5.18;;;;;;;;;;10605191;27;20047;-80
2023/05/29 19:38:16;;;;;;;10.95;5.00;;;;;;;;;;10617728;27;20198;-81
2023/05/29 19:43:17;;;;;;;9.98;4.60;;;;;;;;;;10610202;27;20015;-78
2023/05/29 19:48:18;;;;;;;9.15;4.47;;;;;;;;;;10608487;27;20085;-79
2023/05/29 19:53:19;;;;;;;9.77;4.90;;;;;;;;;;10610642;27;20039;-81
2023/05/29 19:58:20;;;;;;;12.23;5.25;;;;;;;;;;10597522;27;20066;-79
2023/05/29 20:03:21;;;;;;;8.93;4.70;;;;;;;;;;10609380;27;20142;-79
2023/05/29 20:08:22;;;;;;;12.73;5.43;;;;;;;;;;10621767;27;20101;-79
2023/05/29 20:13:25;;;;;;;13.88;5.93;;;;;;;;;;10599549;27;20109;-80
2023/05/29 20:18:27;;;;;;;11.10;4.80;;;;;;;;;;10608305;27;20027;-78
2023/05/29 20:23:28;;;;;;;8.27;5.00;;;;;;;;;;10613009;27;20027;-81
2023/05/29 20:28:30;;;;;;;9.63;4.90;;;;;;;;;;10608827;27;20400;-80
2023/05/29 20:33:31;;;;;;;8.43;4.53;;;;;;;;;;10603822;27;20054;-81
2023/05/29 20:38:33;;;;;;;7.10;4.50;;;;;;;;;;10618921;27;20382;-80
2023/05/29 20:43:37;;;;;;;7.85;4.93;;;;;;;;;;10599325;27;20233;-80
2023/05/29 20:48:38;;;;;;;6.00;4.25;;;;;;;;;;10593775;27;20027;-80
2023/05/29 20:53:42;;;;;;;7.60;4.50;;;;;;;;;;10594060;27;20634;-79
2023/05/29 20:58:43;;;;;;;9.98;4.15;;;;;;;;;;10601775;27;20039;-80
2023/05/29 21:03:44;;;;;;;9.25;4.22;;;;;;;;;;10588813;27;20431;-79
2023/05/29 21:08:45;;;;;;;9.43;4.47;;;;;;;;;;10595323;27;20076;-80
2023/05/29 21:13:46;;;;;;;7.18;4.45;;;;;;;;;;10604299;27;20121;-80
2023/05/29 21:18:47;;;;;;;10.38;4.43;;;;;;;;;;10580290;27;20035;-78
2023/05/29 21:23:48;;;;;;;8.23;4.00;;;;;;;;;;10620049;27;20027;-79
2023/05/29 21:28:49;;;;;;;8.82;4.43;;;;;;;;;;10597847;27;20036;-79
2023/05/29 21:33:50;;;;;;;8.80;3.88;;;;;;;;;;10591399;27;20074;-79
2023/05/29 21:38:52;;;;;;;7.45;4.25;;;;;;;;;;10577778;27;20063;-79
2023/05/29 21:43:53;;;;;;;8.13;4.53;;;;;;;;;;10623758;27;20502;-79
2023/05/29 21:48:54;;;;;;;10.10;4.57;;;;;;;;;;10609045;27;20035;-81
2023/05/29 21:53:55;;;;;;;9.63;4.68;;;;;;;;;;10623344;27;20043;-79
2023/05/29 21:58:56;;;;;;;10.70;5.22;;;;;;;;;;10620469;27;20608;-80
2023/05/29 22:03:57;;;;;;;10.15;6.00;;;;;;;;;;10615177;27;20541;-81
2023/05/29 22:08:58;;;;;;;12.68;5.38;;;;;;;;;;10610856;27;20076;-80
2023/05/29 22:14:00;;;;;;;15.02;6.57;;;;;;;;;;10615649;27;20042;-80
2023/05/29 22:19:04;;;;;;;12.52;5.90;;;;;;;;;;10609354;27;20035;-80
2023/05/29 22:24:05;;;;;;;13.77;6.07;;;;;;;;;;10605966;27;20475;-79
2023/05/29 22:29:06;;;;;;;13.02;6.03;;;;;;;;;;10592541;27;20031;-78
2023/05/29 22:34:07;;;;;;;12.32;6.80;;;;;;;;;;10629950;27;20079;-81
2023/05/29 22:39:09;;;;;;;13.90;6.82;;;;;;;;;;10604461;27;20418;-80
2023/05/29 22:44:10;;;;;;;12.30;6.20;;;;;;;;;;10618822;27;20637;-80
2023/05/29 22:49:12;;;;;;;11.70;6.45;;;;;;;;;;10629049;27;20038;-79
2023/05/29 22:54:13;;;;;;;12.15;6.00;;;;;;;;;;10618891;27;20035;-80
2023/05/29 22:59:15;;;;;;;15.27;6.43;;;;;;;;;;10618233;27;20050;-80
2023/05/29 23:04:17;;;;;;;13.65;6.40;;;;;;;;;;10618664;27;20050;-80
2023/05/29 23:09:18;;;;;;;12.35;5.75;;;;;;;;;;10623228;27;20504;-78
2023/05/29 23:14:19;;;;;;;13.23;5.65;;;;;;;;;;10603895;27;20562;-78
2023/05/29 23:19:20;;;;;;;11.40;6.00;;;;;;;;;;10611094;27;20478;-81
2023/05/29 23:24:24;;;;;;;11.90;6.07;;;;;;;;;;10612183;27;20030;-80
2023/05/29 23:29:25;;;;;;;13.38;5.97;;;;;;;;;;10611806;27;20038;-79
2023/05/29 23:34:26;;;;;;;11.25;6.38;;;;;;;;;;10600355;27;20502;-78
2023/05/29 23:39:27;;;;;;;11.10;5.72;;;;;;;;;;10619569;27;20035;-81
2023/05/29 23:44:28;;;;;;;12.50;5.90;;;;;;;;;;10616108;27;20110;-79
2023/05/29 23:49:29;;;;;;;11.20;6.30;;;;;;;;;;10629239;27;20435;-81
2023/05/29 23:54:30;;;;;;;12.10;6.22;;;;;;;;;;10621225;27;20552;-79
2023/05/29 23:59:31;;;;;;;12.60;6.50;;;;;;;;;;10620000;27;20031;-81
